WZZ47L EPKK-EPWA
Flight info
| Callsign | WZZ47L |
|---|---|
| Flight time | 0h 33m |
| Altitude | 27000 |
| Route | POBOK M985 KOTEK M866 LOGDA |
| Aircraft | A320/M-SDE3FGHIRWY/LB1 |
Departure
| Time | 2026-04-30 18:45 |
|---|---|
| Airport | Kraków John Paul II International Airport (EPKK) |
Arrival
| Time | 2026-04-30 19:18 |
|---|---|
| Airport | Warsaw Chopin Airport (EPWA) |
| Time | Latitude | Longitude | Altitude | Speed | Heading |
|---|---|---|---|---|---|
| 2026-04-30 18:21 | 50.07287 | 19.79866 | 791 ft | 0 kts | 167° |
| 2026-04-30 18:37 | 50.07301 | 19.79861 | 790 ft | 4 kts | 167° |
| 2026-04-30 18:37 | 50.07328 | 19.79852 | 790 ft | 4 kts | 165° |
| 2026-04-30 18:37 | 50.07353 | 19.79839 | 790 ft | 4 kts | 152° |
| 2026-04-30 18:37 | 50.07371 | 19.79817 | 790 ft | 4 kts | 92° |
| 2026-04-30 18:38 | 50.07371 | 19.79810 | 790 ft | 0 kts | 78° |
| 2026-04-30 18:41 | 50.07375 | 19.79839 | 790 ft | 9 kts | 78° |
| 2026-04-30 18:41 | 50.07387 | 19.79930 | 790 ft | 10 kts | 78° |
| 2026-04-30 18:41 | 50.07404 | 19.80049 | 791 ft | 13 kts | 77° |
| 2026-04-30 18:42 | 50.07425 | 19.80197 | 791 ft | 16 kts | 78° |
| 2026-04-30 18:42 | 50.07543 | 19.80413 | 791 ft | 16 kts | 17° |
| 2026-04-30 18:42 | 50.07655 | 19.80401 | 791 ft | 17 kts | 347° |
| 2026-04-30 18:45 | 50.06864 | 19.71116 | 2687 ft | 192 kts | 260° |
| 2026-04-30 18:45 | 50.06537 | 19.68971 | 3004 ft | 216 kts | 259° |
| 2026-04-30 18:45 | 50.06206 | 19.66562 | 3479 ft | 235 kts | 268° |
| 2026-04-30 18:46 | 50.06566 | 19.64127 | 4289 ft | 236 kts | 305° |
| 2026-04-30 18:46 | 50.07848 | 19.62459 | 4915 ft | 250 kts | 338° |
| 2026-04-30 18:46 | 50.09524 | 19.61686 | 5843 ft | 254 kts | 349° |
| 2026-04-30 18:46 | 50.11282 | 19.61322 | 6832 ft | 257 kts | 1° |
| 2026-04-30 18:47 | 50.13024 | 19.61942 | 7739 ft | 260 kts | 26° |
| 2026-04-30 18:47 | 50.14488 | 19.63606 | 8731 ft | 261 kts | 39° |
| 2026-04-30 18:47 | 50.15880 | 19.65441 | 9701 ft | 263 kts | 39° |
| 2026-04-30 18:47 | 50.17301 | 19.67311 | 10370 ft | 277 kts | 39° |
| 2026-04-30 18:48 | 50.18836 | 19.69327 | 10635 ft | 300 kts | 39° |
| 2026-04-30 18:48 | 50.20486 | 19.71498 | 10614 ft | 319 kts | 40° |
| 2026-04-30 18:48 | 50.22223 | 19.73786 | 11478 ft | 328 kts | 39° |
| 2026-04-30 18:48 | 50.23953 | 19.76066 | 12421 ft | 325 kts | 40° |
| 2026-04-30 18:49 | 50.25683 | 19.78351 | 13256 ft | 326 kts | 40° |
| 2026-04-30 18:49 | 50.27419 | 19.80650 | 14069 ft | 328 kts | 40° |
| 2026-04-30 18:49 | 50.29165 | 19.82962 | 14788 ft | 330 kts | 40° |
| 2026-04-30 18:49 | 50.30922 | 19.85288 | 15465 ft | 332 kts | 40° |
| 2026-04-30 18:50 | 50.32692 | 19.87632 | 16104 ft | 334 kts | 40° |
| 2026-04-30 18:50 | 50.34473 | 19.89995 | 16757 ft | 337 kts | 39° |
| 2026-04-30 18:50 | 50.36263 | 19.92372 | 17252 ft | 339 kts | 39° |
| 2026-04-30 18:50 | 50.38059 | 19.94761 | 17364 ft | 338 kts | 39° |
| 2026-04-30 18:51 | 50.39855 | 19.97149 | 17380 ft | 338 kts | 39° |
| 2026-04-30 18:51 | 50.41647 | 19.99537 | 17396 ft | 338 kts | 39° |
| 2026-04-30 18:51 | 50.43436 | 20.01930 | 17395 ft | 338 kts | 39° |
| 2026-04-30 18:51 | 50.45237 | 20.04339 | 17737 ft | 342 kts | 39° |
| 2026-04-30 18:52 | 50.47046 | 20.06760 | 18451 ft | 343 kts | 39° |
| 2026-04-30 18:52 | 50.48869 | 20.09200 | 19085 ft | 345 kts | 39° |
| 2026-04-30 18:52 | 50.50699 | 20.11654 | 19707 ft | 346 kts | 40° |
| 2026-04-30 18:52 | 50.50813 | 20.11806 | 19747 ft | 347 kts | 40° |
| 2026-04-30 18:53 | 50.51665 | 20.12952 | 20046 ft | 347 kts | 40° |
| 2026-04-30 18:53 | 50.53502 | 20.15422 | 20670 ft | 348 kts | 40° |
| 2026-04-30 18:53 | 50.55495 | 20.17562 | 21237 ft | 349 kts | 27° |
| 2026-04-30 18:53 | 50.57735 | 20.19041 | 21364 ft | 348 kts | 24° |
| 2026-04-30 18:54 | 50.59959 | 20.20415 | 21383 ft | 348 kts | 23° |
| 2026-04-30 18:54 | 50.62213 | 20.21776 | 21391 ft | 347 kts | 23° |
| 2026-04-30 18:54 | 50.64472 | 20.23133 | 21387 ft | 347 kts | 23° |
| 2026-04-30 18:54 | 50.66728 | 20.24496 | 21390 ft | 347 kts | 23° |
| 2026-04-30 18:55 | 50.68977 | 20.25870 | 21394 ft | 347 kts | 23° |
| 2026-04-30 18:55 | 50.73480 | 20.28646 | 20933 ft | 349 kts | 23° |
| 2026-04-30 18:55 | 50.75753 | 20.30053 | 20082 ft | 352 kts | 23° |
| 2026-04-30 18:56 | 50.80305 | 20.32877 | 18736 ft | 351 kts | 22° |
| 2026-04-30 18:56 | 50.82571 | 20.34286 | 18022 ft | 349 kts | 22° |
| 2026-04-30 18:56 | 50.84821 | 20.35684 | 17335 ft | 347 kts | 22° |
| 2026-04-30 18:57 | 50.89292 | 20.38466 | 15993 ft | 343 kts | 22° |
| 2026-04-30 18:57 | 50.91504 | 20.39842 | 15517 ft | 340 kts | 22° |
| 2026-04-30 18:57 | 50.93722 | 20.41217 | 15371 ft | 343 kts | 22° |
| 2026-04-30 18:58 | 50.98173 | 20.43983 | 15391 ft | 344 kts | 22° |
| 2026-04-30 18:58 | 51.00393 | 20.45374 | 15389 ft | 338 kts | 22° |
| 2026-04-30 18:58 | 51.02518 | 20.46707 | 15387 ft | 318 kts | 22° |
| 2026-04-30 18:59 | 51.06530 | 20.49226 | 15390 ft | 308 kts | 22° |
| 2026-04-30 19:00 | 51.12502 | 20.52970 | 15391 ft | 307 kts | 22° |
| 2026-04-30 19:00 | 51.14492 | 20.54218 | 15389 ft | 307 kts | 22° |
| 2026-04-30 19:00 | 51.18461 | 20.56717 | 15396 ft | 307 kts | 22° |
| 2026-04-30 19:01 | 51.22396 | 20.59204 | 15390 ft | 300 kts | 22° |
| 2026-04-30 19:01 | 51.24346 | 20.60438 | 15391 ft | 297 kts | 22° |
| 2026-04-30 19:02 | 51.28131 | 20.62833 | 14958 ft | 292 kts | 22° |
| 2026-04-30 19:02 | 51.31906 | 20.65228 | 14053 ft | 291 kts | 22° |
| 2026-04-30 19:03 | 51.35658 | 20.67609 | 13121 ft | 289 kts | 22° |
| 2026-04-30 19:03 | 51.39382 | 20.69977 | 12248 ft | 287 kts | 22° |
| 2026-04-30 19:04 | 51.43062 | 20.72322 | 11584 ft | 278 kts | 21° |
| 2026-04-30 19:04 | 51.46634 | 20.74596 | 10952 ft | 271 kts | 21° |
| 2026-04-30 19:05 | 51.50026 | 20.76768 | 10494 ft | 261 kts | 22° |
| 2026-04-30 19:05 | 51.53381 | 20.78926 | 10379 ft | 261 kts | 22° |
| 2026-04-30 19:06 | 51.56731 | 20.81076 | 9701 ft | 258 kts | 21° |
| 2026-04-30 19:06 | 51.58398 | 20.82146 | 9353 ft | 257 kts | 21° |
| 2026-04-30 19:06 | 51.61704 | 20.84271 | 8677 ft | 254 kts | 21° |
| 2026-04-30 19:07 | 51.64900 | 20.86328 | 8275 ft | 243 kts | 21° |
| 2026-04-30 19:07 | 51.66465 | 20.87336 | 7980 ft | 241 kts | 21° |
| 2026-04-30 19:08 | 51.69572 | 20.89340 | 7370 ft | 240 kts | 21° |
| 2026-04-30 19:08 | 51.72650 | 20.91330 | 6845 ft | 235 kts | 21° |
| 2026-04-30 19:08 | 51.74145 | 20.92299 | 6679 ft | 229 kts | 21° |
| 2026-04-30 19:09 | 51.77074 | 20.94196 | 6103 ft | 226 kts | 21° |
| 2026-04-30 19:09 | 51.78537 | 20.95144 | 5777 ft | 227 kts | 21° |
| 2026-04-30 19:09 | 51.80000 | 20.96093 | 5461 ft | 227 kts | 20° |
| 2026-04-30 19:10 | 51.82925 | 20.97995 | 4814 ft | 226 kts | 20° |
| 2026-04-30 19:10 | 51.85845 | 20.99900 | 4164 ft | 226 kts | 20° |
| 2026-04-30 19:11 | 51.87296 | 21.00848 | 4011 ft | 225 kts | 20° |
| 2026-04-30 19:11 | 51.90175 | 21.02723 | 4009 ft | 214 kts | 20° |
| 2026-04-30 19:11 | 51.91550 | 21.03619 | 4010 ft | 212 kts | 20° |
| 2026-04-30 19:12 | 51.92920 | 21.04509 | 4005 ft | 211 kts | 20° |
| 2026-04-30 19:12 | 51.94280 | 21.05395 | 3730 ft | 210 kts | 19° |
| 2026-04-30 19:12 | 51.95640 | 21.06281 | 3422 ft | 211 kts | 20° |
| 2026-04-30 19:13 | 51.98352 | 21.08059 | 3014 ft | 210 kts | 20° |
| 2026-04-30 19:13 | 52.00956 | 21.09507 | 3006 ft | 188 kts | 1° |
| 2026-04-30 19:13 | 52.02207 | 21.09199 | 3007 ft | 177 kts | 338° |
| 2026-04-30 19:14 | 52.03256 | 21.08316 | 3024 ft | 163 kts | 332° |
| 2026-04-30 19:14 | 52.04236 | 21.07459 | 2915 ft | 158 kts | 333° |
| 2026-04-30 19:14 | 52.05164 | 21.06652 | 2720 ft | 145 kts | 333° |
| 2026-04-30 19:14 | 52.06008 | 21.05919 | 2544 ft | 133 kts | 333° |
| 2026-04-30 19:15 | 52.06814 | 21.05219 | 2359 ft | 130 kts | 332° |
| 2026-04-30 19:15 | 52.08399 | 21.03841 | 2004 ft | 129 kts | 333° |
| 2026-04-30 19:15 | 52.09190 | 21.03152 | 1824 ft | 129 kts | 333° |
| 2026-04-30 19:16 | 52.09985 | 21.02461 | 1658 ft | 130 kts | 332° |
| 2026-04-30 19:16 | 52.10784 | 21.01765 | 1470 ft | 131 kts | 332° |
| 2026-04-30 19:16 | 52.12400 | 21.00362 | 1095 ft | 133 kts | 332° |
| 2026-04-30 19:17 | 52.13213 | 20.99638 | 910 ft | 133 kts | 332° |
| 2026-04-30 19:17 | 52.14868 | 20.98205 | 520 ft | 136 kts | 332° |
| 2026-04-30 19:17 | 52.15698 | 20.97483 | 359 ft | 133 kts | 332° |
| 2026-04-30 19:18 | 52.16581 | 20.96710 | 357 ft | 85 kts | 332° |
| 2026-04-30 19:18 | 52.17095 | 20.96260 | 354 ft | 38 kts | 332° |
| 2026-04-30 19:18 | 52.17332 | 20.96086 | 356 ft | 35 kts | 348° |
| 2026-04-30 19:19 | 52.17511 | 20.96067 | 361 ft | 20 kts | 0° |
| 2026-04-30 19:19 | 52.17530 | 20.96068 | 352 ft | 0 kts | 3° |
| 2026-04-30 19:20 | 52.17532 | 20.96068 | 352 ft | 2 kts | 4° |
| 2026-04-30 19:20 | 52.17609 | 20.96118 | 352 ft | 12 kts | 25° |
| 2026-04-30 19:21 | 52.17703 | 20.96124 | 360 ft | 17 kts | 335° |
| 2026-04-30 19:21 | 52.17833 | 20.96231 | 360 ft | 15 kts | 62° |
| 2026-04-30 19:22 | 52.17779 | 20.96285 | 355 ft | 2 kts | 234° |
| 2026-04-30 19:22 | 52.17768 | 20.96254 | 357 ft | 0 kts | 244° |